sensor_id;sensor_type;location;lat;lon;timestamp;pressure;altitude;pressure_sealevel;temperature
71640;BMP280;60912;48.968;10.124;2023-04-21T00:00:13;96230.47;;;7.30
71640;BMP280;60912;48.968;10.124;2023-04-21T00:02:39;96231.00;;;7.15
71640;BMP280;60912;48.968;10.124;2023-04-21T00:05:08;96235.06;;;6.96
71640;BMP280;60912;48.968;10.124;2023-04-21T00:07:38;96249.59;;;6.77
71640;BMP280;60912;48.968;10.124;2023-04-21T00:10:10;96253.34;;;6.74
71640;BMP280;60912;48.968;10.124;2023-04-21T00:12:36;96253.91;;;6.86
71640;BMP280;60912;48.968;10.124;2023-04-21T00:15:02;96253.50;;;6.82
71640;BMP280;60912;48.968;10.124;2023-04-21T00:17:28;96239.16;;;6.89
71640;BMP280;60912;48.968;10.124;2023-04-21T00:19:54;96239.28;;;6.97
71640;BMP280;60912;48.968;10.124;2023-04-21T00:22:19;96253.41;;;7.01
71640;BMP280;60912;48.968;10.124;2023-04-21T00:24:45;96258.63;;;6.85
71640;BMP280;60912;48.968;10.124;2023-04-21T00:27:10;96274.84;;;6.70
71640;BMP280;60912;48.968;10.124;2023-04-21T00:29:36;96261.50;;;6.80
71640;BMP280;60912;48.968;10.124;2023-04-21T00:32:01;96262.28;;;6.94
71640;BMP280;60912;48.968;10.124;2023-04-21T00:34:28;96257.09;;;6.90
71640;BMP280;60912;48.968;10.124;2023-04-21T00:36:53;96258.97;;;6.82
71640;BMP280;60912;48.968;10.124;2023-04-21T00:39:19;96260.13;;;6.86
71640;BMP280;60912;48.968;10.124;2023-04-21T00:41:45;96257.16;;;6.84
71640;BMP280;60912;48.968;10.124;2023-04-21T00:44:10;96254.03;;;6.80
71640;BMP280;60912;48.968;10.124;2023-04-21T00:46:35;96254.88;;;6.88
71640;BMP280;60912;48.968;10.124;2023-04-21T00:49:06;96258.66;;;6.99
71640;BMP280;60912;48.968;10.124;2023-04-21T00:51:33;96261.31;;;6.91
71640;BMP280;60912;48.968;10.124;2023-04-21T00:53:59;96252.34;;;6.91
71640;BMP280;60912;48.968;10.124;2023-04-21T00:56:27;96246.34;;;6.92
71640;BMP280;60912;48.968;10.124;2023-04-21T00:58:54;96251.19;;;6.99
71640;BMP280;60912;48.968;10.124;2023-04-21T01:01:21;96248.78;;;6.96
71640;BMP280;60912;48.968;10.124;2023-04-21T01:03:47;96243.94;;;7.02
71640;BMP280;60912;48.968;10.124;2023-04-21T01:06:12;96243.63;;;7.05
71640;BMP280;60912;48.968;10.124;2023-04-21T01:08:38;96235.66;;;7.07
71640;BMP280;60912;48.968;10.124;2023-04-21T01:11:11;96239.00;;;7.13
71640;BMP280;60912;48.968;10.124;2023-04-21T01:13:37;96245.13;;;7.06
71640;BMP280;60912;48.968;10.124;2023-04-21T01:16:04;96237.41;;;7.05
71640;BMP280;60912;48.968;10.124;2023-04-21T01:18:29;96232.16;;;7.07
71640;BMP280;60912;48.968;10.124;2023-04-21T01:20:55;96223.06;;;7.12
71640;BMP280;60912;48.968;10.124;2023-04-21T01:23:22;96218.13;;;7.23
71640;BMP280;60912;48.968;10.124;2023-04-21T01:25:49;96215.28;;;7.29
71640;BMP280;60912;48.968;10.124;2023-04-21T01:28:20;96226.44;;;7.31
71640;BMP280;60912;48.968;10.124;2023-04-21T01:30:46;96221.81;;;7.39
71640;BMP280;60912;48.968;10.124;2023-04-21T01:33:11;96212.41;;;7.48
71640;BMP280;60912;48.968;10.124;2023-04-21T01:35:36;96220.63;;;7.48
71640;BMP280;60912;48.968;10.124;2023-04-21T01:38:02;96216.75;;;7.43
71640;BMP280;60912;48.968;10.124;2023-04-21T01:40:27;96215.91;;;7.48
71640;BMP280;60912;48.968;10.124;2023-04-21T01:42:53;96217.59;;;7.51
71640;BMP280;60912;48.968;10.124;2023-04-21T01:45:18;96208.50;;;7.56
71640;BMP280;60912;48.968;10.124;2023-04-21T01:47:43;96212.53;;;7.55
71640;BMP280;60912;48.968;10.124;2023-04-21T01:50:09;96208.00;;;7.58
71640;BMP280;60912;48.968;10.124;2023-04-21T01:52:35;96210.84;;;7.65
71640;BMP280;60912;48.968;10.124;2023-04-21T01:55:00;96208.72;;;7.72
71640;BMP280;60912;48.968;10.124;2023-04-21T01:57:26;96211.66;;;7.74
71640;BMP280;60912;48.968;10.124;2023-04-21T01:59:51;96219.00;;;7.79
71640;BMP280;60912;48.968;10.124;2023-04-21T02:02:16;96214.50;;;7.68
71640;BMP280;60912;48.968;10.124;2023-04-21T02:04:42;96220.31;;;7.64
71640;BMP280;60912;48.968;10.124;2023-04-21T02:07:07;96215.25;;;7.55
71640;BMP280;60912;48.968;10.124;2023-04-21T02:09:32;96211.59;;;7.53
71640;BMP280;60912;48.968;10.124;2023-04-21T02:11:58;96214.75;;;7.57
71640;BMP280;60912;48.968;10.124;2023-04-21T02:14:24;96202.38;;;7.63
71640;BMP280;60912;48.968;10.124;2023-04-21T02:16:50;96206.81;;;7.66
71640;BMP280;60912;48.968;10.124;2023-04-21T02:19:15;96200.56;;;7.66
71640;BMP280;60912;48.968;10.124;2023-04-21T02:21:41;96204.78;;;7.67
71640;BMP280;60912;48.968;10.124;2023-04-21T02:24:06;96197.31;;;7.67
71640;BMP280;60912;48.968;10.124;2023-04-21T02:26:31;96183.81;;;7.69
71640;BMP280;60912;48.968;10.124;2023-04-21T02:28:57;96186.78;;;7.72
71640;BMP280;60912;48.968;10.124;2023-04-21T02:31:22;96192.25;;;7.72
71640;BMP280;60912;48.968;10.124;2023-04-21T02:33:48;96196.25;;;7.71
71640;BMP280;60912;48.968;10.124;2023-04-21T02:36:16;96196.44;;;7.73
71640;BMP280;60912;48.968;10.124;2023-04-21T02:38:41;96185.91;;;7.77
71640;BMP280;60912;48.968;10.124;2023-04-21T02:41:06;96178.53;;;7.72
71640;BMP280;60912;48.968;10.124;2023-04-21T02:43:32;96185.16;;;7.76
71640;BMP280;60912;48.968;10.124;2023-04-21T02:45:57;96174.59;;;7.80
71640;BMP280;60912;48.968;10.124;2023-04-21T02:48:23;96179.56;;;7.82
71640;BMP280;60912;48.968;10.124;2023-04-21T02:50:49;96176.59;;;7.80
71640;BMP280;60912;48.968;10.124;2023-04-21T02:53:15;96173.34;;;7.81
71640;BMP280;60912;48.968;10.124;2023-04-21T02:55:41;96171.84;;;7.80
71640;BMP280;60912;48.968;10.124;2023-04-21T02:58:06;96157.84;;;7.84
71640;BMP280;60912;48.968;10.124;2023-04-21T03:00:31;96158.75;;;7.86
71640;BMP280;60912;48.968;10.124;2023-04-21T03:02:57;96151.06;;;7.85
71640;BMP280;60912;48.968;10.124;2023-04-21T03:05:23;96147.78;;;7.86
71640;BMP280;60912;48.968;10.124;2023-04-21T03:07:48;96158.06;;;7.73
71640;BMP280;60912;48.968;10.124;2023-04-21T03:10:14;96165.47;;;7.64
71640;BMP280;60912;48.968;10.124;2023-04-21T03:12:39;96155.56;;;7.61
71640;BMP280;60912;48.968;10.124;2023-04-21T03:15:05;96161.47;;;7.65
71640;BMP280;60912;48.968;10.124;2023-04-21T03:17:30;96162.19;;;7.66
71640;BMP280;60912;48.968;10.124;2023-04-21T03:19:56;96164.03;;;7.50
71640;BMP280;60912;48.968;10.124;2023-04-21T03:22:21;96174.94;;;7.30
71640;BMP280;60912;48.968;10.124;2023-04-21T03:24:47;96179.88;;;7.18
71640;BMP280;60912;48.968;10.124;2023-04-21T03:27:12;96165.97;;;7.16
71640;BMP280;60912;48.968;10.124;2023-04-21T03:29:37;96173.97;;;7.14
71640;BMP280;60912;48.968;10.124;2023-04-21T03:32:03;96183.44;;;7.13
71640;BMP280;60912;48.968;10.124;2023-04-21T03:34:28;96172.28;;;7.24
71640;BMP280;60912;48.968;10.124;2023-04-21T03:36:54;96175.66;;;7.30
71640;BMP280;60912;48.968;10.124;2023-04-21T03:39:20;96178.06;;;7.34
71640;BMP280;60912;48.968;10.124;2023-04-21T03:41:45;96168.47;;;7.40
71640;BMP280;60912;48.968;10.124;2023-04-21T03:44:13;96168.56;;;7.48
71640;BMP280;60912;48.968;10.124;2023-04-21T03:46:42;96170.13;;;7.56
71640;BMP280;60912;48.968;10.124;2023-04-21T03:49:07;96170.53;;;7.60
71640;BMP280;60912;48.968;10.124;2023-04-21T03:51:32;96165.28;;;7.49
71640;BMP280;60912;48.968;10.124;2023-04-21T03:53:58;96166.53;;;7.48
71640;BMP280;60912;48.968;10.124;2023-04-21T03:56:23;96163.06;;;7.48
71640;BMP280;60912;48.968;10.124;2023-04-21T03:58:49;96173.97;;;7.40
71640;BMP280;60912;48.968;10.124;2023-04-21T04:01:14;96180.94;;;7.28
71640;BMP280;60912;48.968;10.124;2023-04-21T04:03:40;96179.88;;;7.18
71640;BMP280;60912;48.968;10.124;2023-04-21T04:06:05;96177.34;;;7.20
71640;BMP280;60912;48.968;10.124;2023-04-21T04:08:31;96181.53;;;7.34
71640;BMP280;60912;48.968;10.124;2023-04-21T04:10:56;96193.66;;;7.39
71640;BMP280;60912;48.968;10.124;2023-04-21T04:13:22;96192.19;;;7.38
71640;BMP280;60912;48.968;10.124;2023-04-21T04:15:49;96180.25;;;7.48
71640;BMP280;60912;48.968;10.124;2023-04-21T04:18:14;96188.56;;;7.56
71640;BMP280;60912;48.968;10.124;2023-04-21T04:20:39;96196.72;;;7.48
71640;BMP280;60912;48.968;10.124;2023-04-21T04:23:05;96194.63;;;7.41
71640;BMP280;60912;48.968;10.124;2023-04-21T04:25:30;96185.34;;;7.44
71640;BMP280;60912;48.968;10.124;2023-04-21T04:27:57;96192.41;;;7.53
71640;BMP280;60912;48.968;10.124;2023-04-21T04:30:23;96212.53;;;7.55
71640;BMP280;60912;48.968;10.124;2023-04-21T04:32:52;96220.75;;;7.55
71640;BMP280;60912;48.968;10.124;2023-04-21T04:35:17;96216.75;;;7.56
71640;BMP280;60912;48.968;10.124;2023-04-21T04:37:47;96205.25;;;7.58
71640;BMP280;60912;48.968;10.124;2023-04-21T04:40:13;96217.38;;;7.62
71640;BMP280;60912;48.968;10.124;2023-04-21T04:42:40;96219.25;;;7.67
71640;BMP280;60912;48.968;10.124;2023-04-21T04:45:06;96220.22;;;7.70
71640;BMP280;60912;48.968;10.124;2023-04-21T04:47:36;96223.25;;;7.66
71640;BMP280;60912;48.968;10.124;2023-04-21T04:50:02;96234.22;;;7.66
71640;BMP280;60912;48.968;10.124;2023-04-21T04:52:28;96238.47;;;7.54
71640;BMP280;60912;48.968;10.124;2023-04-21T04:54:53;96221.91;;;7.47
71640;BMP280;60912;48.968;10.124;2023-04-21T04:57:19;96219.16;;;7.60
71640;BMP280;60912;48.968;10.124;2023-04-21T04:59:44;96214.50;;;7.68
71640;BMP280;60912;48.968;10.124;2023-04-21T05:02:10;96203.63;;;7.76
71640;BMP280;60912;48.968;10.124;2023-04-21T05:04:36;96213.53;;;7.79
71640;BMP280;60912;48.968;10.124;2023-04-21T05:07:02;96214.59;;;7.76
71640;BMP280;60912;48.968;10.124;2023-04-21T05:09:27;96222.63;;;7.74
71640;BMP280;60912;48.968;10.124;2023-04-21T05:11:53;96232.44;;;7.69
71640;BMP280;60912;48.968;10.124;2023-04-21T05:14:18;96239.41;;;7.70
71640;BMP280;60912;48.968;10.124;2023-04-21T05:16:43;96237.06;;;7.87
71640;BMP280;60912;48.968;10.124;2023-04-21T05:19:09;96240.69;;;8.03
71640;BMP280;60912;48.968;10.124;2023-04-21T05:21:34;96236.16;;;8.05
71640;BMP280;60912;48.968;10.124;2023-04-21T05:24:00;96239.59;;;8.19
71640;BMP280;60912;48.968;10.124;2023-04-21T05:26:26;96240.63;;;8.29
71640;BMP280;60912;48.968;10.124;2023-04-21T05:28:55;96247.78;;;8.32
71640;BMP280;60912;48.968;10.124;2023-04-21T05:31:22;96239.44;;;8.25
71640;BMP280;60912;48.968;10.124;2023-04-21T05:33:47;96238.63;;;8.30
71640;BMP280;60912;48.968;10.124;2023-04-21T05:36:13;96250.91;;;8.36
71640;BMP280;60912;48.968;10.124;2023-04-21T05:38:39;96262.38;;;8.27
71640;BMP280;60912;48.968;10.124;2023-04-21T05:41:04;96261.00;;;8.21
71640;BMP280;60912;48.968;10.124;2023-04-21T05:43:30;96259.41;;;8.25
71640;BMP280;60912;48.968;10.124;2023-04-21T05:46:02;96263.91;;;8.36
71640;BMP280;60912;48.968;10.124;2023-04-21T05:48:28;96264.59;;;8.49
71640;BMP280;60912;48.968;10.124;2023-04-21T05:50:54;96265.00;;;8.53
71640;BMP280;60912;48.968;10.124;2023-04-21T05:53:20;96249.19;;;8.67
71640;BMP280;60912;48.968;10.124;2023-04-21T05:55:45;96250.06;;;8.83
71640;BMP280;60912;48.968;10.124;2023-04-21T05:58:10;96238.09;;;9.01
71640;BMP280;60912;48.968;10.124;2023-04-21T06:00:36;96227.94;;;9.17
71640;BMP280;60912;48.968;10.124;2023-04-21T06:03:01;96224.03;;;9.41
71640;BMP280;60912;48.968;10.124;2023-04-21T06:05:27;96212.28;;;9.32
71640;BMP280;60912;48.968;10.124;2023-04-21T06:07:52;96223.03;;;9.66
71640;BMP280;60912;48.968;10.124;2023-04-21T06:10:19;96226.78;;;9.92
71640;BMP280;60912;48.968;10.124;2023-04-21T06:12:45;96227.53;;;10.00
71640;BMP280;60912;48.968;10.124;2023-04-21T06:15:11;96231.75;;;9.93
71640;BMP280;60912;48.968;10.124;2023-04-21T06:17:36;96227.97;;;10.11
71640;BMP280;60912;48.968;10.124;2023-04-21T06:20:02;96235.72;;;10.36
71640;BMP280;60912;48.968;10.124;2023-04-21T06:22:28;96235.34;;;10.54
71640;BMP280;60912;48.968;10.124;2023-04-21T06:24:53;96231.88;;;10.69
71640;BMP280;60912;48.968;10.124;2023-04-21T06:27:19;96227.63;;;10.91
71640;BMP280;60912;48.968;10.124;2023-04-21T06:29:44;96226.84;;;11.13
71640;BMP280;60912;48.968;10.124;2023-04-21T06:32:10;96219.44;;;11.31
71640;BMP280;60912;48.968;10.124;2023-04-21T06:34:36;96222.53;;;11.82
71640;BMP280;60912;48.968;10.124;2023-04-21T06:37:02;96227.91;;;12.13
71640;BMP280;60912;48.968;10.124;2023-04-21T06:39:27;96218.19;;;12.36
71640;BMP280;60912;48.968;10.124;2023-04-21T06:41:53;96223.75;;;12.29
71640;BMP280;60912;48.968;10.124;2023-04-21T06:44:18;96224.28;;;12.52
71640;BMP280;60912;48.968;10.124;2023-04-21T06:46:43;96218.03;;;12.76
71640;BMP280;60912;48.968;10.124;2023-04-21T06:49:09;96218.28;;;12.88
71640;BMP280;60912;48.968;10.124;2023-04-21T06:51:35;96221.09;;;12.80
71640;BMP280;60912;48.968;10.124;2023-04-21T06:54:02;96212.25;;;12.82
71640;BMP280;60912;48.968;10.124;2023-04-21T06:56:27;96214.91;;;12.72
71640;BMP280;60912;48.968;10.124;2023-04-21T06:58:53;96212.31;;;12.74
71640;BMP280;60912;48.968;10.124;2023-04-21T07:01:19;96203.84;;;12.30
71640;BMP280;60912;48.968;10.124;2023-04-21T07:03:44;96208.44;;;11.71
71640;BMP280;60912;48.968;10.124;2023-04-21T07:06:10;96211.72;;;11.37
71640;BMP280;60912;48.968;10.124;2023-04-21T07:08:35;96199.28;;;11.21
71640;BMP280;60912;48.968;10.124;2023-04-21T07:11:01;96197.03;;;11.27
71640;BMP280;60912;48.968;10.124;2023-04-21T07:13:26;96180.72;;;11.53
71640;BMP280;60912;48.968;10.124;2023-04-21T07:15:52;96193.22;;;11.94
71640;BMP280;60912;48.968;10.124;2023-04-21T07:18:17;96180.22;;;12.12
71640;BMP280;60912;48.968;10.124;2023-04-21T07:20:43;96191.59;;;12.41
71640;BMP280;60912;48.968;10.124;2023-04-21T07:23:08;96185.53;;;12.60
71640;BMP280;60912;48.968;10.124;2023-04-21T07:25:34;96192.97;;;12.74
71640;BMP280;60912;48.968;10.124;2023-04-21T07:27:59;96190.38;;;12.94
71640;BMP280;60912;48.968;10.124;2023-04-21T07:30:25;96186.44;;;12.79
71640;BMP280;60912;48.968;10.124;2023-04-21T07:32:50;96189.09;;;12.53
71640;BMP280;60912;48.968;10.124;2023-04-21T07:35:16;96193.31;;;12.54
71640;BMP280;60912;48.968;10.124;2023-04-21T07:37:41;96189.06;;;12.35
71640;BMP280;60912;48.968;10.124;2023-04-21T07:40:07;96187.13;;;12.46
71640;BMP280;60912;48.968;10.124;2023-04-21T07:42:33;96186.72;;;12.91
71640;BMP280;60912;48.968;10.124;2023-04-21T07:44:58;96188.28;;;13.46
71640;BMP280;60912;48.968;10.124;2023-04-21T07:47:25;96186.75;;;13.79
71640;BMP280;60912;48.968;10.124;2023-04-21T07:49:51;96178.03;;;13.56
71640;BMP280;60912;48.968;10.124;2023-04-21T07:52:16;96188.03;;;13.51
71640;BMP280;60912;48.968;10.124;2023-04-21T07:54:42;96182.44;;;13.42
71640;BMP280;60912;48.968;10.124;2023-04-21T07:57:08;96186.47;;;13.14
71640;BMP280;60912;48.968;10.124;2023-04-21T07:59:33;96180.16;;;13.48
71640;BMP280;60912;48.968;10.124;2023-04-21T08:01:58;96181.41;;;13.37
71640;BMP280;60912;48.968;10.124;2023-04-21T08:04:24;96175.16;;;13.63
71640;BMP280;60912;48.968;10.124;2023-04-21T08:06:49;96176.31;;;13.87
71640;BMP280;60912;48.968;10.124;2023-04-21T08:09:15;96174.72;;;13.67
71640;BMP280;60912;48.968;10.124;2023-04-21T08:11:43;96163.47;;;13.92
71640;BMP280;60912;48.968;10.124;2023-04-21T08:14:08;96173.06;;;14.17
71640;BMP280;60912;48.968;10.124;2023-04-21T08:16:36;96179.22;;;13.89
71640;BMP280;60912;48.968;10.124;2023-04-21T08:19:03;96183.31;;;13.61
71640;BMP280;60912;48.968;10.124;2023-04-21T08:21:28;96181.13;;;13.69
71640;BMP280;60912;48.968;10.124;2023-04-21T08:23:53;96178.72;;;13.29
71640;BMP280;60912;48.968;10.124;2023-04-21T08:26:21;96179.81;;;13.61
71640;BMP280;60912;48.968;10.124;2023-04-21T08:28:47;96182.75;;;13.63
71640;BMP280;60912;48.968;10.124;2023-04-21T08:31:14;96177.56;;;13.76
71640;BMP280;60912;48.968;10.124;2023-04-21T08:33:39;96181.00;;;13.94
71640;BMP280;60912;48.968;10.124;2023-04-21T08:36:05;96185.78;;;13.40
71640;BMP280;60912;48.968;10.124;2023-04-21T08:38:31;96192.34;;;13.62
71640;BMP280;60912;48.968;10.124;2023-04-21T08:40:58;96184.41;;;13.49
71640;BMP280;60912;48.968;10.124;2023-04-21T08:43:24;96186.44;;;13.75
71640;BMP280;60912;48.968;10.124;2023-04-21T08:45:50;96175.16;;;13.90
71640;BMP280;60912;48.968;10.124;2023-04-21T08:48:16;96167.31;;;14.52
71640;BMP280;60912;48.968;10.124;2023-04-21T08:50:45;96163.25;;;14.82
71640;BMP280;60912;48.968;10.124;2023-04-21T08:53:11;96165.16;;;14.89
71640;BMP280;60912;48.968;10.124;2023-04-21T08:55:37;96163.06;;;15.37
71640;BMP280;60912;48.968;10.124;2023-04-21T08:58:03;96169.72;;;15.63
71640;BMP280;60912;48.968;10.124;2023-04-21T09:00:28;96175.94;;;15.83
71640;BMP280;60912;48.968;10.124;2023-04-21T09:02:58;96173.72;;;16.00
71640;BMP280;60912;48.968;10.124;2023-04-21T09:05:28;96176.09;;;15.25
71640;BMP280;60912;48.968;10.124;2023-04-21T09:10:42;96179.47;;;15.04
71640;BMP280;60912;48.968;10.124;2023-04-21T09:13:07;96181.78;;;15.17
71640;BMP280;60912;48.968;10.124;2023-04-21T09:15:43;96173.47;;;15.08
71640;BMP280;60912;48.968;10.124;2023-04-21T09:18:23;96186.78;;;15.29
71640;BMP280;60912;48.968;10.124;2023-04-21T09:20:51;96187.06;;;14.94
71640;BMP280;60912;48.968;10.124;2023-04-21T09:23:17;96193.06;;;15.00
71640;BMP280;60912;48.968;10.124;2023-04-21T09:25:44;96193.34;;;14.76
71640;BMP280;60912;48.968;10.124;2023-04-21T09:28:12;96192.03;;;14.77
71640;BMP280;60912;48.968;10.124;2023-04-21T09:30:38;96195.66;;;14.60
71640;BMP280;60912;48.968;10.124;2023-04-21T09:33:04;96195.47;;;14.67
71640;BMP280;60912;48.968;10.124;2023-04-21T09:35:34;96197.78;;;14.42
71640;BMP280;60912;48.968;10.124;2023-04-21T09:38:01;96203.97;;;14.60
71640;BMP280;60912;48.968;10.124;2023-04-21T09:40:28;96194.31;;;14.51
71640;BMP280;60912;48.968;10.124;2023-04-21T09:42:54;96183.38;;;14.72
71640;BMP280;60912;48.968;10.124;2023-04-21T09:45:19;96185.34;;;14.89
71640;BMP280;60912;48.968;10.124;2023-04-21T09:47:48;96182.69;;;15.10
71640;BMP280;60912;48.968;10.124;2023-04-21T09:50:15;96185.75;;;14.86
71640;BMP280;60912;48.968;10.124;2023-04-21T09:52:42;96189.66;;;14.73
71640;BMP280;60912;48.968;10.124;2023-04-21T09:55:12;96182.25;;;14.76
71640;BMP280;60912;48.968;10.124;2023-04-21T09:57:40;96178.88;;;15.06
71640;BMP280;60912;48.968;10.124;2023-04-21T10:00:07;96178.25;;;15.46
71640;BMP280;60912;48.968;10.124;2023-04-21T10:02:35;96186.03;;;15.28
71640;BMP280;60912;48.968;10.124;2023-04-21T10:05:03;96183.72;;;15.15
71640;BMP280;60912;48.968;10.124;2023-04-21T10:07:29;96181.47;;;15.33
71640;BMP280;60912;48.968;10.124;2023-04-21T10:09:56;96171.72;;;14.74
71640;BMP280;60912;48.968;10.124;2023-04-21T10:12:23;96164.88;;;14.75
71640;BMP280;60912;48.968;10.124;2023-04-21T10:14:50;96170.28;;;14.83
71640;BMP280;60912;48.968;10.124;2023-04-21T10:17:17;96170.41;;;15.13
71640;BMP280;60912;48.968;10.124;2023-04-21T10:19:54;96167.47;;;15.40
71640;BMP280;60912;48.968;10.124;2023-04-21T10:22:34;96172.75;;;15.27
71640;BMP280;60912;48.968;10.124;2023-04-21T10:25:01;96165.31;;;15.29
71640;BMP280;60912;48.968;10.124;2023-04-21T10:27:40;96169.19;;;15.45
71640;BMP280;60912;48.968;10.124;2023-04-21T10:30:24;96172.19;;;14.99
71640;BMP280;60912;48.968;10.124;2023-04-21T10:33:03;96165.13;;;15.08
71640;BMP280;60912;48.968;10.124;2023-04-21T10:36:00;96169.81;;;15.05
71640;BMP280;60912;48.968;10.124;2023-04-21T10:38:40;96155.66;;;15.11
71640;BMP280;60912;48.968;10.124;2023-04-21T10:41:25;96154.63;;;15.76
71640;BMP280;60912;48.968;10.124;2023-04-21T10:44:00;96164.75;;;16.02
71640;BMP280;60912;48.968;10.124;2023-04-21T10:46:34;96161.16;;;15.80
71640;BMP280;60912;48.968;10.124;2023-04-21T10:49:25;96165.34;;;15.60
71640;BMP280;60912;48.968;10.124;2023-04-21T10:57:15;96160.63;;;15.22
71640;BMP280;60912;48.968;10.124;2023-04-21T10:59:41;96156.94;;;15.39
71640;BMP280;60912;48.968;10.124;2023-04-21T11:02:10;96159.75;;;15.29
71640;BMP280;60912;48.968;10.124;2023-04-21T11:04:37;96151.13;;;14.96
71640;BMP280;60912;48.968;10.124;2023-04-21T11:09:35;96157.66;;;15.89
71640;BMP280;60912;48.968;10.124;2023-04-21T11:12:03;96155.41;;;15.97
71640;BMP280;60912;48.968;10.124;2023-04-21T11:14:32;96155.34;;;16.07
71640;BMP280;60912;48.968;10.124;2023-04-21T11:16:57;96159.03;;;16.09
71640;BMP280;60912;48.968;10.124;2023-04-21T11:19:23;96155.56;;;16.30
71640;BMP280;60912;48.968;10.124;2023-04-21T11:21:51;96153.56;;;16.63
71640;BMP280;60912;48.968;10.124;2023-04-21T11:24:21;96145.28;;;17.08
71640;BMP280;60912;48.968;10.124;2023-04-21T11:26:47;96147.94;;;17.06
71640;BMP280;60912;48.968;10.124;2023-04-21T11:29:12;96145.09;;;16.61
71640;BMP280;60912;48.968;10.124;2023-04-21T11:31:40;96145.00;;;16.29
71640;BMP280;60912;48.968;10.124;2023-04-21T11:34:06;96138.25;;;16.10
71640;BMP280;60912;48.968;10.124;2023-04-21T11:36:38;96141.59;;;16.40
71640;BMP280;60912;48.968;10.124;2023-04-21T11:39:08;96135.53;;;16.64
71640;BMP280;60912;48.968;10.124;2023-04-21T11:41:35;96126.31;;;16.95
71640;BMP280;60912;48.968;10.124;2023-04-21T11:44:01;96136.19;;;17.07
71640;BMP280;60912;48.968;10.124;2023-04-21T11:46:27;96133.34;;;17.17
71640;BMP280;60912;48.968;10.124;2023-04-21T11:51:39;96128.81;;;17.12
71640;BMP280;60912;48.968;10.124;2023-04-21T11:54:08;96129.03;;;16.72
71640;BMP280;60912;48.968;10.124;2023-04-21T11:56:40;96119.00;;;16.66
71640;BMP280;60912;48.968;10.124;2023-04-21T11:59:10;96117.22;;;16.83
71640;BMP280;60912;48.968;10.124;2023-04-21T12:04:13;96125.75;;;16.63
71640;BMP280;60912;48.968;10.124;2023-04-21T12:06:39;96125.56;;;16.83
71640;BMP280;60912;48.968;10.124;2023-04-21T12:09:04;96130.25;;;16.68
71640;BMP280;60912;48.968;10.124;2023-04-21T12:11:30;96127.34;;;16.66
71640;BMP280;60912;48.968;10.124;2023-04-21T12:13:59;96116.78;;;16.23
71640;BMP280;60912;48.968;10.124;2023-04-21T12:16:27;96119.13;;;16.47
71640;BMP280;60912;48.968;10.124;2023-04-21T12:18:54;96121.22;;;16.80
71640;BMP280;60912;48.968;10.124;2023-04-21T12:21:20;96122.69;;;16.81
71640;BMP280;60912;48.968;10.124;2023-04-21T12:23:45;96127.97;;;16.77
71640;BMP280;60912;48.968;10.124;2023-04-21T12:26:11;96122.72;;;16.92
71640;BMP280;60912;48.968;10.124;2023-04-21T12:28:37;96124.94;;;17.05
71640;BMP280;60912;48.968;10.124;2023-04-21T12:31:03;96120.75;;;17.39
71640;BMP280;60912;48.968;10.124;2023-04-21T12:33:28;96125.75;;;17.64
71640;BMP280;60912;48.968;10.124;2023-04-21T12:35:54;96119.72;;;17.79
71640;BMP280;60912;48.968;10.124;2023-04-21T12:38:19;96124.66;;;18.04
71640;BMP280;60912;48.968;10.124;2023-04-21T12:40:45;96114.00;;;17.89
71640;BMP280;60912;48.968;10.124;2023-04-21T12:43:10;96118.94;;;18.13
71640;BMP280;60912;48.968;10.124;2023-04-21T12:45:38;96102.34;;;18.52
71640;BMP280;60912;48.968;10.124;2023-04-21T12:48:04;96102.16;;;18.37
71640;BMP280;60912;48.968;10.124;2023-04-21T12:50:30;96101.09;;;18.30
71640;BMP280;60912;48.968;10.124;2023-04-21T12:52:56;96095.63;;;18.32
71640;BMP280;60912;48.968;10.124;2023-04-21T12:55:21;96102.81;;;18.12
71640;BMP280;60912;48.968;10.124;2023-04-21T12:57:47;96089.63;;;18.01
71640;BMP280;60912;48.968;10.124;2023-04-21T13:00:14;96082.53;;;18.23
71640;BMP280;60912;48.968;10.124;2023-04-21T13:02:40;96086.44;;;18.55
71640;BMP280;60912;48.968;10.124;2023-04-21T13:05:06;96088.16;;;18.11
71640;BMP280;60912;48.968;10.124;2023-04-21T13:07:33;96084.31;;;18.05
71640;BMP280;60912;48.968;10.124;2023-04-21T13:09:59;96081.91;;;17.88
71640;BMP280;60912;48.968;10.124;2023-04-21T13:12:24;96084.06;;;18.01
71640;BMP280;60912;48.968;10.124;2023-04-21T13:14:50;96085.53;;;17.90
71640;BMP280;60912;48.968;10.124;2023-04-21T13:17:15;96072.41;;;18.16
71640;BMP280;60912;48.968;10.124;2023-04-21T13:19:41;96070.88;;;18.27
71640;BMP280;60912;48.968;10.124;2023-04-21T13:22:06;96077.78;;;17.77
71640;BMP280;60912;48.968;10.124;2023-04-21T13:24:32;96065.91;;;17.77
71640;BMP280;60912;48.968;10.124;2023-04-21T13:26:58;96061.16;;;17.91
71640;BMP280;60912;48.968;10.124;2023-04-21T13:29:25;96061.69;;;18.24
71640;BMP280;60912;48.968;10.124;2023-04-21T13:31:54;96061.72;;;18.12
71640;BMP280;60912;48.968;10.124;2023-04-21T13:34:19;96056.78;;;18.36
71640;BMP280;60912;48.968;10.124;2023-04-21T13:36:45;96065.06;;;18.59
71640;BMP280;60912;48.968;10.124;2023-04-21T13:39:11;96050.09;;;18.41
71640;BMP280;60912;48.968;10.124;2023-04-21T13:41:36;96056.47;;;18.55
71640;BMP280;60912;48.968;10.124;2023-04-21T13:44:02;96048.25;;;18.57
71640;BMP280;60912;48.968;10.124;2023-04-21T13:46:27;96052.06;;;18.64
71640;BMP280;60912;48.968;10.124;2023-04-21T13:48:53;96044.59;;;18.55
71640;BMP280;60912;48.968;10.124;2023-04-21T13:51:19;96037.69;;;18.81
71640;BMP280;60912;48.968;10.124;2023-04-21T13:53:44;96040.81;;;19.01
71640;BMP280;60912;48.968;10.124;2023-04-21T13:56:10;96041.44;;;18.74
71640;BMP280;60912;48.968;10.124;2023-04-21T13:58:38;96035.41;;;18.91
71640;BMP280;60912;48.968;10.124;2023-04-21T14:01:03;96029.69;;;18.76
71640;BMP280;60912;48.968;10.124;2023-04-21T14:03:28;96036.47;;;18.73
71640;BMP280;60912;48.968;10.124;2023-04-21T14:05:54;96030.44;;;18.90
71640;BMP280;60912;48.968;10.124;2023-04-21T14:08:20;96029.38;;;18.83
71640;BMP280;60912;48.968;10.124;2023-04-21T14:10:46;96022.78;;;18.77
71640;BMP280;60912;48.968;10.124;2023-04-21T14:13:11;96025.50;;;19.02